createdAt,value
2019-02-15T00:00:38.596Z,1007.82
2019-02-15T00:01:38.587Z,1007.88
2019-02-15T00:02:38.554Z,1007.87
2019-02-15T00:03:38.546Z,1007.90
2019-02-15T00:04:39.757Z,1007.92
2019-02-15T00:05:38.590Z,1007.90
2019-02-15T00:06:38.512Z,1007.85
2019-02-15T00:07:38.515Z,1007.85
2019-02-15T00:08:38.510Z,1007.77
2019-02-15T00:09:38.500Z,1007.79
2019-02-15T00:10:38.486Z,1007.78
2019-02-15T00:11:38.479Z,1007.77
2019-02-15T00:12:38.453Z,1007.76
2019-02-15T00:13:38.466Z,1007.79
2019-02-15T00:14:38.437Z,1007.80
2019-02-15T00:15:38.430Z,1007.84
2019-02-15T00:16:38.424Z,1007.82
2019-02-15T00:17:38.418Z,1007.74
2019-02-15T00:18:38.404Z,1007.77
2019-02-15T00:19:38.395Z,1007.79
2019-02-15T00:20:38.379Z,1007.82
2019-02-15T00:21:38.362Z,1007.77
2019-02-15T00:22:38.346Z,1007.78
2019-02-15T00:23:38.335Z,1007.81
2019-02-15T00:24:38.324Z,1007.82
2019-02-15T00:25:38.335Z,1007.83
2019-02-15T00:26:38.305Z,1007.91
2019-02-15T00:27:38.301Z,1007.86
2019-02-15T00:28:38.326Z,1007.81
2019-02-15T00:29:38.301Z,1007.83
2019-02-15T00:30:38.290Z,1007.79
2019-02-15T00:31:38.265Z,1007.77
2019-02-15T00:32:38.242Z,1007.72
2019-02-15T00:33:38.240Z,1007.71
2019-02-15T00:34:38.225Z,1007.68
2019-02-15T00:35:38.227Z,1007.73
2019-02-15T00:36:38.218Z,1007.75
2019-02-15T00:37:38.207Z,1007.73
2019-02-15T00:38:38.197Z,1007.73
2019-02-15T00:39:38.214Z,1007.72
2019-02-15T00:40:38.179Z,1007.72
2019-02-15T00:41:38.153Z,1007.71
2019-02-15T00:42:38.155Z,1007.72
2019-02-15T00:43:38.128Z,1007.69
2019-02-15T00:44:38.119Z,1007.67
2019-02-15T00:45:38.121Z,1007.70
2019-02-15T00:46:38.119Z,1007.76
2019-02-15T00:47:38.089Z,1007.78
2019-02-15T00:48:38.078Z,1007.75
2019-02-15T00:49:38.071Z,1007.75
2019-02-15T00:50:38.080Z,1007.76
2019-02-15T00:51:38.052Z,1007.81
2019-02-15T00:52:38.034Z,1007.72
2019-02-15T00:53:38.023Z,1007.67
2019-02-15T00:54:38.034Z,1007.77
2019-02-15T00:55:38.014Z,1007.78
2019-02-15T00:56:37.993Z,1007.73
2019-02-15T00:57:37.988Z,1007.75
2019-02-15T00:58:38.003Z,1007.72
2019-02-15T00:59:37.974Z,1007.69
2019-02-15T01:00:37.974Z,1007.65
2019-02-15T01:01:37.940Z,1007.62
2019-02-15T01:02:37.931Z,1007.68
2019-02-15T01:03:37.923Z,1007.60
2019-02-15T01:04:37.912Z,1007.67
2019-02-15T01:05:37.902Z,1007.68
2019-02-15T01:06:37.912Z,1007.69
2019-02-15T01:07:37.892Z,1007.61
2019-02-15T01:08:37.869Z,1007.65
2019-02-15T01:09:37.883Z,1007.68
2019-02-15T01:10:37.855Z,1007.65
2019-02-15T01:11:37.895Z,1007.66
2019-02-15T01:12:37.834Z,1007.63
2019-02-15T01:13:37.815Z,1007.62
2019-02-15T01:14:37.820Z,1007.61
2019-02-15T01:15:37.827Z,1007.68
2019-02-15T01:16:37.803Z,1007.62
2019-02-15T01:17:37.776Z,1007.61
2019-02-15T01:18:37.784Z,1007.57
2019-02-15T01:19:37.769Z,1007.60
2019-02-15T01:20:37.748Z,1007.61
2019-02-15T01:21:37.751Z,1007.58
2019-02-15T01:22:37.727Z,1007.68
2019-02-15T01:23:37.717Z,1007.64
2019-02-15T01:24:37.707Z,1007.63
2019-02-15T01:25:37.690Z,1007.65
2019-02-15T01:26:37.719Z,1007.61
2019-02-15T01:27:37.670Z,1007.62
2019-02-15T01:28:37.663Z,1007.67
2019-02-15T01:29:37.669Z,1007.59
2019-02-15T01:30:37.643Z,1007.60
2019-02-15T01:31:37.651Z,1007.66
2019-02-15T01:32:37.618Z,1007.68
2019-02-15T01:33:37.623Z,1007.68
2019-02-15T01:34:37.601Z,1007.70
2019-02-15T01:35:37.591Z,1007.69
2019-02-15T01:36:37.607Z,1007.77
2019-02-15T01:37:37.603Z,1007.76
2019-02-15T01:38:37.587Z,1007.73
2019-02-15T01:39:37.549Z,1007.76
2019-02-15T01:40:37.546Z,1007.79
2019-02-15T01:41:37.547Z,1007.75
2019-02-15T01:42:37.526Z,1007.76
2019-02-15T01:43:40.202Z,1007.84
2019-02-15T01:44:37.494Z,1007.87
2019-02-15T01:45:37.485Z,1007.83
2019-02-15T01:46:37.487Z,1007.84
2019-02-15T01:47:37.469Z,1007.82
2019-02-15T01:48:37.451Z,1007.76
2019-02-15T01:49:37.440Z,1007.78
2019-02-15T01:50:37.431Z,1007.77
2019-02-15T01:51:37.472Z,1007.77
2019-02-15T01:52:37.412Z,1007.78
2019-02-15T01:53:37.400Z,1007.79
2019-02-15T01:54:37.390Z,1007.82
2019-02-15T01:55:37.384Z,1007.84
2019-02-15T01:56:37.399Z,1007.84
2019-02-15T01:57:37.371Z,1007.80
2019-02-15T01:58:37.354Z,1007.75
2019-02-15T01:59:37.378Z,1007.76
2019-02-15T02:00:37.339Z,1007.72
2019-02-15T02:01:37.330Z,1007.67
2019-02-15T02:02:37.323Z,1007.68
2019-02-15T02:03:37.302Z,1007.64
2019-02-15T02:04:37.300Z,1007.65
2019-02-15T02:05:37.302Z,1007.60
2019-02-15T02:06:37.274Z,1007.66
2019-02-15T02:07:37.283Z,1007.68
2019-02-15T02:08:37.265Z,1007.70
2019-02-15T02:09:37.237Z,1007.72
2019-02-15T02:10:37.227Z,1007.72
2019-02-15T02:11:37.270Z,1007.70
2019-02-15T02:12:37.244Z,1007.73
2019-02-15T02:13:37.196Z,1007.71
2019-02-15T02:14:37.195Z,1007.67
2019-02-15T02:15:37.193Z,1007.72
2019-02-15T02:16:37.176Z,1007.71
2019-02-15T02:17:37.176Z,1007.71
2019-02-15T02:18:37.155Z,1007.71
2019-02-15T02:19:37.156Z,1007.73
2019-02-15T02:20:37.170Z,1007.73
2019-02-15T02:21:37.115Z,1007.70
2019-02-15T02:22:37.217Z,1007.74
2019-02-15T02:23:37.108Z,1007.74
2019-02-15T02:24:37.092Z,1007.79
2019-02-15T02:25:37.076Z,1007.74
2019-02-15T02:26:37.066Z,1007.71
2019-02-15T02:27:37.086Z,1007.74
2019-02-15T02:28:37.064Z,1007.77
2019-02-15T02:29:37.056Z,1007.75
2019-02-15T02:30:37.051Z,1007.73
2019-02-15T02:31:37.039Z,1007.69
2019-02-15T02:32:37.023Z,1007.74
2019-02-15T02:33:37.022Z,1007.66
2019-02-15T02:34:36.992Z,1007.64
2019-02-15T02:35:36.987Z,1007.65
2019-02-15T02:36:36.998Z,1007.64
2019-02-15T02:37:37.063Z,1007.66
2019-02-15T02:38:36.950Z,1007.64
2019-02-15T02:39:36.976Z,1007.64
2019-02-15T02:40:36.980Z,1007.61
2019-02-15T02:41:36.933Z,1007.56
2019-02-15T02:42:36.931Z,1007.59
2019-02-15T02:43:36.890Z,1007.64
2019-02-15T02:44:36.911Z,1007.63
2019-02-15T02:45:36.877Z,1007.56
2019-02-15T02:46:36.874Z,1007.62
2019-02-15T02:47:36.891Z,1007.56
2019-02-15T02:48:36.848Z,1007.56
2019-02-15T02:49:36.854Z,1007.60
2019-02-15T02:50:36.849Z,1007.59
2019-02-15T02:51:36.828Z,1007.58
2019-02-15T02:52:36.850Z,1007.55
2019-02-15T02:53:36.893Z,1007.59
2019-02-15T02:54:36.827Z,1007.56
2019-02-15T02:55:36.795Z,1007.57
2019-02-15T02:56:36.777Z,1007.60
2019-02-15T02:57:36.791Z,1007.61
2019-02-15T02:58:36.783Z,1007.58
2019-02-15T02:59:36.757Z,1007.62
2019-02-15T03:00:36.740Z,1007.58
2019-02-15T03:01:36.739Z,1007.59
2019-02-15T03:02:36.732Z,1007.61
2019-02-15T03:03:36.714Z,1007.61
2019-02-15T03:04:36.685Z,1007.56
2019-02-15T03:05:36.686Z,1007.59
2019-02-15T03:06:36.662Z,1007.60
2019-02-15T03:07:36.703Z,1007.59
2019-02-15T03:08:36.667Z,1007.57
2019-02-15T03:09:36.700Z,1007.58
2019-02-15T03:10:36.627Z,1007.61
2019-02-15T03:11:36.606Z,1007.68
2019-02-15T03:12:36.601Z,1007.64
2019-02-15T03:13:36.596Z,1007.64
2019-02-15T03:14:36.594Z,1007.68
2019-02-15T03:15:36.574Z,1007.65
2019-02-15T03:16:36.562Z,1007.65
2019-02-15T03:17:36.559Z,1007.67
2019-02-15T03:18:36.542Z,1007.63
2019-02-15T03:19:36.561Z,1007.64
2019-02-15T03:20:36.561Z,1007.67
2019-02-15T03:21:36.504Z,1007.60
2019-02-15T03:22:36.497Z,1007.60
2019-02-15T03:23:36.506Z,1007.59
2019-02-15T03:24:36.485Z,1007.57
2019-02-15T03:25:36.514Z,1007.56
2019-02-15T03:26:36.487Z,1007.59
2019-02-15T03:27:36.505Z,1007.60
2019-02-15T03:28:36.446Z,1007.64
2019-02-15T03:29:36.423Z,1007.64
2019-02-15T03:30:36.434Z,1007.54
2019-02-15T03:31:36.411Z,1007.54
2019-02-15T03:32:36.412Z,1007.49
2019-02-15T03:33:36.395Z,1007.53
2019-02-15T03:34:36.625Z,1007.51
2019-02-15T03:35:36.374Z,1007.49
2019-02-15T03:36:36.358Z,1007.48
2019-02-15T03:37:36.352Z,1007.43
2019-02-15T03:38:36.359Z,1007.48
2019-02-15T03:39:36.366Z,1007.41
2019-02-15T03:40:36.328Z,1007.40
2019-02-15T03:41:36.421Z,1007.41
2019-02-15T03:42:36.482Z,1007.43
2019-02-15T03:43:36.513Z,1007.46
2019-02-15T03:44:36.488Z,1007.38
2019-02-15T03:45:36.354Z,1007.42
2019-02-15T03:46:36.432Z,1007.40
2019-02-15T03:47:36.383Z,1007.43
2019-02-15T03:48:36.528Z,1007.37
2019-02-15T03:49:36.362Z,1007.38
2019-02-15T03:50:36.369Z,1007.35
2019-02-15T03:51:36.397Z,1007.34
2019-02-15T03:52:36.329Z,1007.36
2019-02-15T03:53:36.481Z,1007.36
2019-02-15T03:54:36.271Z,1007.34
2019-02-15T03:55:36.158Z,1007.40
2019-02-15T03:56:36.158Z,1007.38
2019-02-15T03:57:36.287Z,1007.33
2019-02-15T03:58:36.548Z,1007.33
2019-02-15T03:59:36.222Z,1007.33
2019-02-15T04:00:36.248Z,1007.34
2019-02-15T04:01:36.143Z,1007.27
2019-02-15T04:02:36.094Z,1007.33
2019-02-15T04:03:36.124Z,1007.34
2019-02-15T04:04:36.082Z,1007.24
2019-02-15T04:05:36.054Z,1007.28
2019-02-15T04:06:36.046Z,1007.31
2019-02-15T04:07:36.040Z,1007.34
2019-02-15T04:08:36.030Z,1007.33
2019-02-15T04:09:36.007Z,1007.29
2019-02-15T04:10:35.998Z,1007.30
2019-02-15T04:11:36.009Z,1007.31
2019-02-15T04:12:35.977Z,1007.29
2019-02-15T04:13:35.979Z,1007.32
2019-02-15T04:14:35.973Z,1007.30
2019-02-15T04:15:35.963Z,1007.33
2019-02-15T04:16:35.935Z,1007.27
2019-02-15T04:17:35.952Z,1007.25
2019-02-15T04:18:35.946Z,1007.22
2019-02-15T04:19:35.913Z,1007.26
2019-02-15T04:20:35.909Z,1007.18
2019-02-15T04:21:35.882Z,1007.26
2019-02-15T04:22:35.878Z,1007.19
2019-02-15T04:23:36.159Z,1007.19
2019-02-15T04:24:35.863Z,1007.19
2019-02-15T04:25:35.850Z,1007.23
2019-02-15T04:26:35.879Z,1007.23
2019-02-15T04:27:35.826Z,1007.24
2019-02-15T04:28:35.847Z,1007.20
2019-02-15T04:29:35.830Z,1007.19
2019-02-15T04:30:35.798Z,1007.22
2019-02-15T04:31:35.882Z,1007.16
2019-02-15T04:32:35.779Z,1007.19
2019-02-15T04:33:35.759Z,1007.18
2019-02-15T04:34:35.786Z,1007.16
2019-02-15T04:35:35.747Z,1007.15
2019-02-15T04:36:35.735Z,1007.18
2019-02-15T04:37:35.719Z,1007.20
2019-02-15T04:38:35.739Z,1007.23
2019-02-15T04:39:35.714Z,1007.17
2019-02-15T04:40:35.705Z,1007.19
2019-02-15T04:41:35.676Z,1007.23
2019-02-15T04:42:35.688Z,1007.25
2019-02-15T04:43:35.656Z,1007.27
2019-02-15T04:44:42.593Z,1007.25
2019-02-15T04:45:36.655Z,1007.22
2019-02-15T04:46:35.633Z,1007.28
2019-02-15T04:47:35.622Z,1007.26
2019-02-15T04:48:35.644Z,1007.26
2019-02-15T04:49:35.634Z,1007.27
2019-02-15T04:50:35.600Z,1007.27
2019-02-15T04:51:35.581Z,1007.28
2019-02-15T04:52:35.573Z,1007.31
2019-02-15T04:53:35.607Z,1007.29
2019-02-15T04:54:35.553Z,1007.26
2019-02-15T04:55:35.547Z,1007.30
2019-02-15T04:56:35.539Z,1007.27
2019-02-15T04:57:35.510Z,1007.26
2019-02-15T04:58:35.505Z,1007.26
2019-02-15T04:59:35.503Z,1007.30
2019-02-15T05:00:35.476Z,1007.29
2019-02-15T05:01:35.467Z,1007.26
2019-02-15T05:02:35.472Z,1007.29
2019-02-15T05:03:35.459Z,1007.31
2019-02-15T05:04:35.456Z,1007.26
2019-02-15T05:05:35.435Z,1007.35
2019-02-15T05:06:35.468Z,1007.37
2019-02-15T05:07:35.408Z,1007.35
2019-02-15T05:08:35.402Z,1007.30
2019-02-15T05:09:35.409Z,1007.41
2019-02-15T05:10:35.381Z,1007.37
2019-02-15T05:11:35.367Z,1007.38
2019-02-15T05:12:35.357Z,1007.33
2019-02-15T05:13:35.367Z,1007.37
2019-02-15T05:14:35.352Z,1007.40
2019-02-15T05:15:35.340Z,1007.38
2019-02-15T05:16:35.327Z,1007.30
2019-02-15T05:17:35.330Z,1007.33
2019-02-15T05:18:35.319Z,1007.35
2019-02-15T05:19:35.309Z,1007.28
2019-02-15T05:20:35.274Z,1007.26
2019-02-15T05:21:35.265Z,1007.36
2019-02-15T05:22:35.253Z,1007.35
2019-02-15T05:23:35.258Z,1007.37
2019-02-15T05:24:35.249Z,1007.31
2019-02-15T05:25:35.252Z,1007.35
2019-02-15T05:26:35.235Z,1007.39
2019-02-15T05:27:35.228Z,1007.32
2019-02-15T05:28:35.212Z,1007.35
2019-02-15T05:29:35.202Z,1007.38
2019-02-15T05:30:35.212Z,1007.40
2019-02-15T05:31:35.171Z,1007.42
2019-02-15T05:32:35.166Z,1007.37
2019-02-15T05:33:35.726Z,1007.41
2019-02-15T05:34:35.141Z,1007.43
2019-02-15T05:35:35.156Z,1007.39
2019-02-15T05:36:35.134Z,1007.39
2019-02-15T05:37:35.115Z,1007.36
2019-02-15T05:38:35.104Z,1007.37
2019-02-15T05:39:35.086Z,1007.37
2019-02-15T05:40:35.102Z,1007.36
2019-02-15T05:41:35.085Z,1007.36
2019-02-15T05:42:35.055Z,1007.36
2019-02-15T05:43:35.071Z,1007.35
2019-02-15T05:44:35.054Z,1007.36
2019-02-15T05:45:35.079Z,1007.36
2019-02-15T05:46:35.063Z,1007.37
2019-02-15T05:47:35.015Z,1007.39
2019-02-15T05:48:35.010Z,1007.38
2019-02-15T05:49:34.990Z,1007.39
2019-02-15T05:50:34.999Z,1007.36
2019-02-15T05:51:34.962Z,1007.36
2019-02-15T05:52:34.957Z,1007.38
2019-02-15T05:53:34.944Z,1007.34
2019-02-15T05:54:34.953Z,1007.39
2019-02-15T05:55:34.950Z,1007.37
2019-02-15T05:56:34.935Z,1007.41
2019-02-15T05:57:34.974Z,1007.33
2019-02-15T05:58:34.914Z,1007.35
2019-02-15T05:59:34.888Z,1007.41
2019-02-15T06:00:37.316Z,1007.36
2019-02-15T06:01:34.880Z,1007.33
2019-02-15T06:02:34.859Z,1007.33
2019-02-15T06:03:34.880Z,1007.34
2019-02-15T06:04:34.851Z,1007.33
2019-02-15T06:05:34.836Z,1007.37
2019-02-15T06:06:34.836Z,1007.39
2019-02-15T06:07:34.839Z,1007.33
2019-02-15T06:08:34.821Z,1007.35
2019-02-15T06:09:34.787Z,1007.40
2019-02-15T06:10:34.777Z,1007.39
2019-02-15T06:11:34.786Z,1007.35
2019-02-15T06:12:34.764Z,1007.35
2019-02-15T06:13:34.755Z,1007.41
2019-02-15T06:14:34.735Z,1007.40
2019-02-15T06:15:34.724Z,1007.40
2019-02-15T06:16:34.747Z,1007.36
2019-02-15T06:17:34.699Z,1007.36
2019-02-15T06:18:34.688Z,1007.36
2019-02-15T06:19:34.681Z,1007.33
2019-02-15T06:20:34.667Z,1007.35
2019-02-15T06:21:34.679Z,1007.35
2019-02-15T06:22:34.665Z,1007.31
2019-02-15T06:23:34.653Z,1007.35
2019-02-15T06:24:34.653Z,1007.38
2019-02-15T06:25:34.636Z,1007.33
2019-02-15T06:26:34.674Z,1007.37
2019-02-15T06:27:34.612Z,1007.36
2019-02-15T06:28:34.593Z,1007.37
2019-02-15T06:29:34.601Z,1007.40
2019-02-15T06:30:34.613Z,1007.37
2019-02-15T06:31:34.593Z,1007.39
2019-02-15T06:32:34.588Z,1007.40
2019-02-15T06:33:34.566Z,1007.47
2019-02-15T06:34:34.554Z,1007.39
2019-02-15T06:35:34.519Z,1007.38
2019-02-15T06:36:34.525Z,1007.42
2019-02-15T06:37:34.506Z,1007.45
2019-02-15T06:38:35.148Z,1007.46
2019-02-15T06:39:34.486Z,1007.45
2019-02-15T06:40:34.461Z,1007.45
2019-02-15T06:41:34.464Z,1007.52
2019-02-15T06:42:34.458Z,1007.44
2019-02-15T06:43:34.484Z,1007.39
2019-02-15T06:44:34.425Z,1007.44
2019-02-15T06:45:34.432Z,1007.50
2019-02-15T06:46:34.444Z,1007.48
2019-02-15T06:47:34.433Z,1007.52
2019-02-15T06:48:34.395Z,1007.56
2019-02-15T06:49:34.407Z,1007.59
2019-02-15T06:50:34.384Z,1007.57
2019-02-15T06:51:34.370Z,1007.61
2019-02-15T06:52:34.338Z,1007.58
2019-02-15T06:53:34.334Z,1007.63
2019-02-15T06:54:34.336Z,1007.61
2019-02-15T06:55:34.308Z,1007.59
2019-02-15T06:56:34.306Z,1007.65
2019-02-15T06:57:34.302Z,1007.61
2019-02-15T06:58:34.315Z,1007.64
2019-02-15T06:59:34.270Z,1007.67
2019-02-15T07:00:34.261Z,1007.65
2019-02-15T07:01:34.270Z,1007.66
2019-02-15T07:02:34.254Z,1007.69
2019-02-15T07:03:34.266Z,1007.63
2019-02-15T07:04:34.248Z,1007.65
2019-02-15T07:05:34.203Z,1007.63
2019-02-15T07:06:34.214Z,1007.66
2019-02-15T07:07:34.223Z,1007.66
2019-02-15T07:08:34.177Z,1007.64
2019-02-15T07:09:34.214Z,1007.60
2019-02-15T07:10:34.226Z,1007.65
2019-02-15T07:11:34.176Z,1007.59
2019-02-15T07:12:34.153Z,1007.61
2019-02-15T07:13:34.157Z,1007.63
2019-02-15T07:14:34.107Z,1007.59
2019-02-15T07:15:34.188Z,1007.58
2019-02-15T07:16:34.091Z,1007.55
2019-02-15T07:17:34.100Z,1007.57
2019-02-15T07:18:34.127Z,1007.60
2019-02-15T07:19:34.069Z,1007.58
2019-02-15T07:20:34.067Z,1007.63
2019-02-15T07:21:34.083Z,1007.62
2019-02-15T07:22:34.091Z,1007.62
2019-02-15T07:23:34.034Z,1007.52
2019-02-15T07:24:34.048Z,1007.61
2019-02-15T07:25:34.026Z,1007.55
2019-02-15T07:26:33.990Z,1007.55
2019-02-15T07:27:34.380Z,1007.55
2019-02-15T07:28:33.964Z,1007.56
2019-02-15T07:29:33.953Z,1007.56
2019-02-15T07:30:33.957Z,1007.52
2019-02-15T07:31:33.940Z,1007.52
2019-02-15T07:32:33.936Z,1007.54
2019-02-15T07:33:33.940Z,1007.52
2019-02-15T07:34:33.944Z,1007.57
2019-02-15T07:35:33.895Z,1007.58
2019-02-15T07:36:33.904Z,1007.54
2019-02-15T07:37:33.917Z,1007.53
2019-02-15T07:38:33.865Z,1007.52
2019-02-15T07:39:33.851Z,1007.56
2019-02-15T07:40:33.842Z,1007.65
2019-02-15T07:41:33.836Z,1007.65
2019-02-15T07:42:33.891Z,1007.67
2019-02-15T07:43:33.827Z,1007.66
2019-02-15T07:44:33.806Z,1007.71
2019-02-15T07:45:42.475Z,1007.65
2019-02-15T07:46:34.784Z,1007.67
2019-02-15T07:47:33.803Z,1007.65
2019-02-15T07:48:33.786Z,1007.65
2019-02-15T07:49:33.769Z,1007.71
2019-02-15T07:50:33.739Z,1007.67
2019-02-15T07:51:33.727Z,1007.63
2019-02-15T07:52:33.777Z,1007.67
2019-02-15T07:53:33.732Z,1007.64
2019-02-15T07:54:33.752Z,1007.60
2019-02-15T07:55:33.686Z,1007.57
2019-02-15T07:56:33.694Z,1007.60
2019-02-15T07:57:34.035Z,1007.59
2019-02-15T07:58:33.689Z,1007.60
2019-02-15T07:59:33.642Z,1007.55
2019-02-15T08:00:33.656Z,1007.60
2019-02-15T08:01:34.020Z,1007.50
2019-02-15T08:02:33.626Z,1007.57
2019-02-15T08:03:33.612Z,1007.54
2019-02-15T08:04:33.612Z,1007.55
2019-02-15T08:05:33.643Z,1007.55
2019-02-15T08:06:33.579Z,1007.54
2019-02-15T08:07:33.569Z,1007.52
2019-02-15T08:08:33.553Z,1007.58
2019-02-15T08:09:33.577Z,1007.54
2019-02-15T08:10:33.563Z,1007.50
2019-02-15T08:11:33.521Z,1007.47
2019-02-15T08:12:33.526Z,1007.42
2019-02-15T08:13:33.497Z,1007.45
2019-02-15T08:14:33.531Z,1007.48
2019-02-15T08:15:36.345Z,1007.44
2019-02-15T08:16:33.501Z,1007.44
2019-02-15T08:17:33.519Z,1007.45
2019-02-15T08:18:33.451Z,1007.46
2019-02-15T08:19:33.465Z,1007.48
2019-02-15T08:20:33.421Z,1007.50
2019-02-15T08:21:33.436Z,1007.45
2019-02-15T08:22:33.433Z,1007.44
2019-02-15T08:23:33.392Z,1007.43
2019-02-15T08:24:33.398Z,1007.43
2019-02-15T08:25:33.413Z,1007.38
2019-02-15T08:26:33.360Z,1007.35
2019-02-15T08:27:33.386Z,1007.26
2019-02-15T08:28:33.418Z,1007.25
2019-02-15T08:29:33.331Z,1007.25
2019-02-15T08:30:33.338Z,1007.24
2019-02-15T08:31:33.310Z,1007.23
2019-02-15T08:32:34.628Z,1007.21
2019-02-15T08:33:33.309Z,1007.25
2019-02-15T08:34:33.279Z,1007.24
2019-02-15T08:35:33.270Z,1007.19
2019-02-15T08:36:33.252Z,1007.20
2019-02-15T08:37:33.261Z,1007.18
2019-02-15T08:38:33.239Z,1007.16
2019-02-15T08:39:33.225Z,1007.20
2019-02-15T08:40:33.231Z,1007.20
2019-02-15T08:41:33.213Z,1007.18
2019-02-15T08:42:33.214Z,1007.18
2019-02-15T08:43:34.577Z,1007.16
2019-02-15T08:44:33.173Z,1007.14
2019-02-15T08:45:33.167Z,1007.14
2019-02-15T08:46:33.149Z,1007.13
2019-02-15T08:47:33.154Z,1007.13
2019-02-15T08:48:33.127Z,1007.11
2019-02-15T08:49:33.124Z,1007.18
2019-02-15T08:50:33.117Z,1007.18
2019-02-15T08:51:33.115Z,1007.15
2019-02-15T08:52:33.106Z,1007.25
2019-02-15T08:53:33.081Z,1007.20
2019-02-15T08:54:33.063Z,1007.24
2019-02-15T08:55:33.053Z,1007.23
2019-02-15T08:56:33.043Z,1007.26
2019-02-15T08:57:33.026Z,1007.25
2019-02-15T08:58:33.031Z,1007.24
2019-02-15T08:59:33.020Z,1007.24
2019-02-15T09:00:33.007Z,1007.24
2019-02-15T09:01:32.989Z,1007.26
2019-02-15T09:02:32.997Z,1007.20
2019-02-15T09:03:32.980Z,1007.18
2019-02-15T09:04:32.961Z,1007.24
2019-02-15T09:05:32.961Z,1007.23
2019-02-15T09:06:32.944Z,1007.18
2019-02-15T09:07:32.939Z,1007.23
2019-02-15T09:08:32.958Z,1007.27
2019-02-15T09:09:32.904Z,1007.27
2019-02-15T09:10:32.900Z,1007.30
2019-02-15T09:11:32.912Z,1007.27
2019-02-15T09:12:32.881Z,1007.26
2019-02-15T09:13:32.884Z,1007.24
2019-02-15T09:14:34.358Z,1007.25
2019-02-15T09:15:34.475Z,1007.24
2019-02-15T09:21:45.165Z,1007.17
2019-02-15T09:22:44.764Z,1007.15
2019-02-15T09:23:44.973Z,1007.15
2019-02-15T09:26:22.877Z,1007.17
2019-02-15T09:27:21.980Z,1007.15
2019-02-15T09:28:23.097Z,1007.13
2019-02-15T09:29:22.386Z,1007.10
2019-02-15T09:30:23.621Z,1007.10
2019-02-15T09:31:22.724Z,1007.08
2019-02-15T09:32:21.897Z,1007.10
2019-02-15T09:33:25.997Z,1007.09
2019-02-15T09:34:22.423Z,1007.06
2019-02-15T09:35:21.614Z,1007.04
2019-02-15T09:36:22.129Z,1007.05
2019-02-15T09:37:55.723Z,1007.04
2019-02-15T09:39:06.586Z,1007.05
2019-02-15T09:39:24.710Z,1007.04
2019-02-15T09:40:21.779Z,1007.00
2019-02-15T09:41:23.297Z,1007.09
2019-02-15T09:42:26.472Z,1007.08
2019-02-15T09:43:22.590Z,1007.02
2019-02-15T09:44:26.285Z,1007.12
2019-02-15T09:45:22.503Z,1007.06
2019-02-15T09:46:20.894Z,1007.02
2019-02-15T09:47:20.869Z,1007.05
2019-02-15T09:48:20.851Z,1007.04
2019-02-15T09:49:22.216Z,1007.07
2019-02-15T09:50:20.829Z,1007.10
2019-02-15T09:51:20.828Z,1007.11
2019-02-15T09:52:20.896Z,1007.08
2019-02-15T09:53:21.212Z,1007.05
2019-02-15T09:54:20.911Z,1007.05
2019-02-15T09:55:20.919Z,1006.98
2019-02-15T09:56:20.899Z,1007.05
2019-02-15T09:57:21.029Z,1007.03
2019-02-15T09:58:21.010Z,1006.94
2019-02-15T09:59:20.915Z,1007.02
2019-02-15T10:00:20.911Z,1006.98
2019-02-15T10:01:20.817Z,1007.05
2019-02-15T10:02:20.710Z,1007.06
2019-02-15T10:03:20.709Z,1007.00
2019-02-15T10:04:20.772Z,1006.99
2019-02-15T10:05:20.851Z,1007.00
2019-02-15T10:06:20.687Z,1006.98
2019-02-15T10:07:20.759Z,1007.08
2019-02-15T10:08:20.846Z,1007.03
2019-02-15T10:09:20.723Z,1007.03
2019-02-15T10:10:20.691Z,1007.09
2019-02-15T10:11:20.720Z,1007.09
2019-02-15T10:12:20.625Z,1007.08
2019-02-15T10:13:20.613Z,1007.03
2019-02-15T10:14:20.752Z,1007.00
2019-02-15T10:15:20.610Z,1007.05
2019-02-15T10:16:28.815Z,1007.06
2019-02-15T10:17:21.669Z,1006.98
2019-02-15T10:18:20.715Z,1007.05
2019-02-15T10:19:22.625Z,1007.02
2019-02-15T10:20:20.560Z,1006.96
2019-02-15T10:21:20.536Z,1007.00
2019-02-15T10:22:20.545Z,1007.00
2019-02-15T10:23:20.628Z,1006.97
2019-02-15T10:24:20.972Z,1006.92
2019-02-15T10:25:20.468Z,1006.92
2019-02-15T10:26:20.675Z,1006.88
2019-02-15T10:27:20.447Z,1006.93
2019-02-15T10:28:21.019Z,1006.92
2019-02-15T10:29:20.461Z,1006.89
2019-02-15T10:30:20.456Z,1006.85
2019-02-15T10:31:20.474Z,1006.86
2019-02-15T10:32:20.581Z,1006.90
2019-02-15T10:33:20.479Z,1006.89
2019-02-15T10:34:20.695Z,1006.90
2019-02-15T10:35:20.493Z,1006.86
2019-02-15T10:36:20.419Z,1006.87
2019-02-15T10:37:20.577Z,1006.85
2019-02-15T10:38:20.315Z,1006.87
2019-02-15T10:39:20.310Z,1006.81
2019-02-15T10:40:20.308Z,1006.87
2019-02-15T10:41:20.286Z,1006.86
2019-02-15T10:42:20.272Z,1006.82
2019-02-15T10:43:20.263Z,1006.84
2019-02-15T10:44:20.252Z,1006.80
2019-02-15T10:45:20.370Z,1006.82
2019-02-15T10:46:20.225Z,1006.87
2019-02-15T10:47:25.045Z,1006.85
2019-02-15T10:48:21.211Z,1006.80
2019-02-15T10:49:20.193Z,1006.79
2019-02-15T10:50:20.195Z,1006.76
2019-02-15T10:51:20.187Z,1006.73
2019-02-15T10:52:20.164Z,1006.74
2019-02-15T10:53:20.150Z,1006.72
2019-02-15T10:54:20.137Z,1006.73
2019-02-15T10:55:20.137Z,1006.70
2019-02-15T10:56:20.116Z,1006.61
2019-02-15T10:57:20.106Z,1006.61
2019-02-15T10:58:20.099Z,1006.63
2019-02-15T10:59:20.086Z,1006.61
2019-02-15T11:00:20.090Z,1006.59
2019-02-15T11:01:20.064Z,1006.55
2019-02-15T11:02:20.059Z,1006.51
2019-02-15T11:03:20.064Z,1006.57
2019-02-15T11:04:20.038Z,1006.59
2019-02-15T11:05:20.033Z,1006.59
2019-02-15T11:06:20.010Z,1006.57
2019-02-15T11:07:20.000Z,1006.50
2019-02-15T11:08:19.991Z,1006.45
2019-02-15T11:09:19.983Z,1006.43
2019-02-15T11:10:19.987Z,1006.47
2019-02-15T11:11:19.961Z,1006.45
2019-02-15T11:12:19.965Z,1006.40
2019-02-15T11:13:19.938Z,1006.40
2019-02-15T11:14:19.926Z,1006.37
2019-02-15T11:15:19.929Z,1006.40
2019-02-15T11:16:19.920Z,1006.34
2019-02-15T11:17:19.897Z,1006.29
2019-02-15T11:18:19.884Z,1006.31
2019-02-15T11:19:19.879Z,1006.28
2019-02-15T11:20:19.875Z,1006.28
2019-02-15T11:21:19.850Z,1006.25
2019-02-15T11:22:19.840Z,1006.23
2019-02-15T11:23:19.847Z,1006.25
2019-02-15T11:24:19.830Z,1006.23
2019-02-15T11:25:19.819Z,1006.24
2019-02-15T11:26:24.732Z,1006.25
2019-02-15T11:27:20.785Z,1006.19
2019-02-15T11:28:19.775Z,1006.12
2019-02-15T11:29:19.778Z,1006.11
2019-02-15T11:30:19.770Z,1006.10
2019-02-15T11:31:19.743Z,1006.07
2019-02-15T11:32:19.732Z,1006.10
2019-02-15T11:33:19.722Z,1006.09
2019-02-15T11:34:19.709Z,1005.98
2019-02-15T11:35:19.714Z,1005.96
2019-02-15T11:36:19.690Z,1005.91
2019-02-15T11:37:19.678Z,1005.97
2019-02-15T11:38:19.667Z,1005.93
2019-02-15T11:39:19.680Z,1005.94
2019-02-15T11:40:19.672Z,1005.88
2019-02-15T11:41:19.638Z,1005.87
2019-02-15T11:42:19.632Z,1005.90
2019-02-15T11:43:19.615Z,1005.86
2019-02-15T11:44:19.607Z,1005.89
2019-02-15T11:45:19.598Z,1005.84
2019-02-15T11:46:19.594Z,1005.81
2019-02-15T11:47:19.572Z,1005.79
2019-02-15T11:48:19.562Z,1005.77
2019-02-15T11:49:19.566Z,1005.75
2019-02-15T11:50:19.540Z,1005.69
2019-02-15T11:51:19.545Z,1005.67
2019-02-15T11:52:19.518Z,1005.72
2019-02-15T11:53:19.515Z,1005.70
2019-02-15T11:54:23.515Z,1005.65
2019-02-15T11:55:19.487Z,1005.63
2019-02-15T11:56:19.520Z,1005.61
2019-02-15T11:57:19.465Z,1005.65
2019-02-15T11:58:19.467Z,1005.59
2019-02-15T11:59:19.452Z,1005.60
2019-02-15T12:00:21.921Z,1005.53
2019-02-15T12:01:19.461Z,1005.57
2019-02-15T12:02:19.422Z,1005.47
2019-02-15T12:03:19.413Z,1005.49
2019-02-15T12:04:19.391Z,1005.48
2019-02-15T12:05:19.388Z,1005.45
2019-02-15T12:06:19.407Z,1005.43
2019-02-15T12:07:19.377Z,1005.37
2019-02-15T12:08:19.355Z,1005.36
2019-02-15T12:09:19.348Z,1005.43
2019-02-15T12:10:19.347Z,1005.49
2019-02-15T12:11:19.342Z,1005.49
2019-02-15T12:12:19.315Z,1005.40